Time;durP1;ratioP1;P1;durP2;ratioP2;P2;SDS_P1;SDS_P2;PMS_P1;PMS_P2;Temp;Humidity;BMP_temperature;BMP_pressure;BME280_temperature;BME280_humidity;BME280_pressure;Samples;Min_cycle;Max_cycle;Signal;HPM_P1;HPM_P2
2022/12/16 00:01:11;;;;;;;52.47;33.28;;;;;;;-4.35;96.06;100961.38;5053633;28;20032;-50
2022/12/16 00:03:37;;;;;;;53.70;34.10;;;;;;;-4.31;96.23;100957.88;5048446;28;20506;-52
2022/12/16 00:06:05;;;;;;;50.13;33.45;;;;;;;-4.27;96.29;100954.34;5051423;28;20029;-51
2022/12/16 00:08:35;;;;;;;49.00;34.13;;;;;;;-4.22;95.98;100958.66;5053238;28;20020;-50
2022/12/16 00:11:01;;;;;;;50.33;33.75;;;;;;;-4.18;95.99;100957.72;5052870;28;20037;-50
2022/12/16 00:13:29;;;;;;;54.83;34.92;;;;;;;-4.14;96.52;100955.06;5051957;28;20164;-49
2022/12/16 00:15:54;;;;;;;51.83;35.45;;;;;;;-4.09;96.35;100945.47;5042515;28;20075;-50
2022/12/16 00:18:19;;;;;;;58.15;35.40;;;;;;;-4.04;96.56;100954.94;5052609;28;20033;-50
2022/12/16 00:20:46;;;;;;;51.55;34.33;;;;;;;-3.99;96.37;100953.13;5053152;28;20082;-50
2022/12/16 00:23:12;;;;;;;48.80;33.00;;;;;;;-3.95;95.96;100954.78;5050960;28;20039;-51
2022/12/16 00:25:38;;;;;;;52.78;33.00;;;;;;;-3.91;96.26;100946.94;5052148;28;20025;-50
2022/12/16 00:28:03;;;;;;;51.58;32.90;;;;;;;-3.87;96.28;100945.16;5052483;28;20082;-50
2022/12/16 00:30:28;;;;;;;51.80;33.83;;;;;;;-3.84;96.54;100939.91;5051367;28;20037;-49
2022/12/16 00:32:53;;;;;;;52.08;33.72;;;;;;;-3.79;96.15;100943.28;5052602;28;20096;-49
2022/12/16 00:35:19;;;;;;;50.90;32.17;;;;;;;-3.76;96.29;100948.44;5051951;28;20059;-53
2022/12/16 00:37:46;;;;;;;47.28;32.53;;;;;;;-3.72;96.70;100951.84;5051932;28;20383;-50
2022/12/16 00:40:11;;;;;;;47.90;32.47;;;;;;;-3.67;96.24;100946.59;5048666;28;20043;-50
2022/12/16 00:42:37;;;;;;;44.72;30.80;;;;;;;-3.63;96.44;100943.91;5043948;28;20025;-49
2022/12/16 00:45:03;;;;;;;50.15;33.85;;;;;;;-3.60;96.26;100943.00;5051547;28;20463;-49
2022/12/16 00:47:28;;;;;;;48.15;32.45;;;;;;;-3.57;96.19;100948.16;5051709;28;20094;-50
2022/12/16 00:49:54;;;;;;;48.17;30.90;;;;;;;-3.54;95.95;100946.34;5051772;28;20475;-49
2022/12/16 00:52:19;;;;;;;50.17;32.60;;;;;;;-3.50;96.23;100952.34;5051255;28;20036;-50
2022/12/16 00:54:44;;;;;;;46.63;32.78;;;;;;;-3.47;96.22;100954.03;5051065;28;20492;-49
2022/12/16 00:57:10;;;;;;;47.97;32.03;;;;;;;-3.44;95.93;100959.19;5052145;28;20107;-50
2022/12/16 00:59:35;;;;;;;45.33;31.10;;;;;;;-3.40;95.99;100955.66;5052002;28;20386;-49
2022/12/16 01:02:00;;;;;;;47.00;31.05;;;;;;;-3.37;96.08;100947.81;5051379;28;20052;-50
2022/12/16 01:04:25;;;;;;;45.30;31.08;;;;;;;-3.33;96.39;100946.88;5051858;28;20025;-49
2022/12/16 01:06:51;;;;;;;40.65;29.15;;;;;;;-3.29;96.48;100961.53;5052063;28;20383;-50
2022/12/16 01:09:16;;;;;;;44.80;31.02;;;;;;;-3.26;96.11;100961.47;5051836;28;20025;-49
2022/12/16 01:11:41;;;;;;;45.05;31.00;;;;;;;-3.23;96.28;100955.34;5052128;28;20045;-49
2022/12/16 01:14:07;;;;;;;47.83;31.33;;;;;;;-3.20;96.41;100963.97;5049711;28;20371;-49
2022/12/16 01:16:33;;;;;;;47.13;29.40;;;;;;;-3.17;96.33;100969.09;5040780;28;20649;-49
2022/12/16 01:18:59;;;;;;;49.63;32.03;;;;;;;-3.12;95.93;100970.75;5050282;28;20033;-50
2022/12/16 01:21:24;;;;;;;45.60;30.92;;;;;;;-3.10;95.99;100979.38;5051950;28;20029;-50
2022/12/16 01:23:51;;;;;;;45.90;32.65;;;;;;;-3.07;95.59;100976.72;5051678;28;20104;-50
2022/12/16 01:26:16;;;;;;;43.60;29.65;;;;;;;-3.05;96.01;100978.44;5052076;28;20397;-50
2022/12/16 01:28:42;;;;;;;45.42;29.60;;;;;;;-3.02;95.82;100980.94;5050525;28;20133;-50
2022/12/16 01:31:07;;;;;;;44.05;30.70;;;;;;;-2.98;95.73;100989.56;5052247;28;20418;-49
2022/12/16 01:33:32;;;;;;;47.65;31.55;;;;;;;-2.94;95.66;100992.97;5051398;28;20024;-50
2022/12/16 01:36:03;;;;;;;45.80;30.30;;;;;;;-2.93;95.46;100992.06;5051709;28;20121;-50
2022/12/16 01:38:29;;;;;;;41.88;30.05;;;;;;;-2.91;95.64;100991.16;5050745;28;20390;-52
2022/12/16 01:40:55;;;;;;;43.05;30.23;;;;;;;-2.90;95.59;100992.84;5051881;28;20021;-49
2022/12/16 01:43:24;;;;;;;46.00;30.08;;;;;;;-2.87;95.12;101003.19;5050298;28;20033;-50
2022/12/16 01:45:51;;;;;;;44.85;29.88;;;;;;;-2.86;95.83;101004.94;5051727;28;20020;-51
2022/12/16 01:48:31;;;;;;;46.35;30.25;;;;;;;-2.81;96.01;101013.50;5050751;28;20036;-50
2022/12/16 01:51:26;;;;;;;41.45;29.15;;;;;;;-2.81;95.77;101010.88;5050551;28;20040;-50
2022/12/16 01:53:55;;;;;;;44.60;30.20;;;;;;;-2.77;95.81;101013.44;5049695;28;20041;-49
2022/12/16 01:56:24;;;;;;;43.28;30.00;;;;;;;-2.77;95.69;101010.84;5046192;28;20559;-49
2022/12/16 01:58:50;;;;;;;44.03;30.30;;;;;;;-2.76;95.35;101017.72;5051266;28;20072;-49
2022/12/16 02:01:16;;;;;;;46.75;30.10;;;;;;;-2.75;95.24;101012.50;5050615;28;20017;-51
2022/12/16 02:03:42;;;;;;;43.13;30.30;;;;;;;-2.73;95.28;101020.28;5051212;28;20032;-53
2022/12/16 02:06:07;;;;;;;43.00;31.67;;;;;;;-2.72;95.01;101016.81;5050728;28;20510;-53
2022/12/16 02:08:33;;;;;;;45.38;31.05;;;;;;;-2.69;95.12;101024.56;5051054;28;20033;-52
2022/12/16 02:11:24;;;;;;;45.65;30.35;;;;;;;-2.67;95.46;101021.03;5052892;28;20130;-52
2022/12/16 02:14:13;;;;;;;43.90;29.98;;;;;;;-2.64;95.37;101030.53;5049610;28;20053;-52
2022/12/16 02:16:50;;;;;;;46.45;30.10;;;;;;;-2.63;95.50;101025.28;5053792;28;20028;-50
2022/12/16 02:19:18;;;;;;;41.08;29.33;;;;;;;-2.62;95.21;101036.53;5054923;28;20024;-49
2022/12/16 02:21:56;;;;;;;43.78;31.20;;;;;;;-2.61;94.90;101041.72;5054304;28;20429;-49
2022/12/16 02:24:40;;;;;;;38.40;28.08;;;;;;;-2.58;95.03;101034.72;5054822;28;20037;-49
2022/12/16 02:27:39;;;;;;;43.58;29.75;;;;;;;-2.58;95.00;101040.81;5051984;28;20029;-49
2022/12/16 02:30:23;;;;;;;;;;;;;;;-2.52;94.79;101037.22;5055357;28;20025;-49
2022/12/16 02:33:21;;;;;;;43.75;29.45;;;;;;;-2.54;94.58;101042.44;5051742;28;20282;-50
2022/12/16 02:35:56;;;;;;;45.65;29.88;;;;;;;-2.54;94.65;101047.66;5050632;28;20036;-49
2022/12/16 02:38:46;;;;;;;47.00;30.35;;;;;;;-2.53;94.91;101043.31;5062666;28;20040;-50
2022/12/16 02:41:21;;;;;;;49.35;31.25;;;;;;;-2.53;94.65;101048.50;5055144;28;20025;-50
2022/12/16 02:43:53;;;;;;;48.45;31.75;;;;;;;-2.54;94.73;101041.59;5038065;28;20124;-52
2022/12/16 02:46:22;;;;;;;47.85;31.23;;;;;;;-2.53;94.67;101046.78;5037069;28;20037;-49
2022/12/16 02:48:47;;;;;;;47.80;31.10;;;;;;;-2.52;94.73;101045.88;5053857;28;20037;-49
2022/12/16 02:51:13;;;;;;;52.15;34.25;;;;;;;-2.51;94.71;101050.19;5053033;28;20533;-49
2022/12/16 02:53:42;;;;;;;48.78;33.03;;;;;;;-2.49;94.48;101052.78;5043718;28;20029;-50
2022/12/16 02:56:35;;;;;;;39.85;29.90;;;;;;;-2.47;94.97;101051.84;5053750;28;20108;-51
2022/12/16 02:59:14;;;;;;;46.75;32.03;;;;;;;-2.48;95.32;101052.75;5047588;28;20036;-50
2022/12/16 03:02:11;;;;;;;46.97;32.45;;;;;;;-2.45;95.75;101047.50;5040353;28;20100;-49
2022/12/16 03:05:08;;;;;;;49.33;33.10;;;;;;;-2.44;95.79;101049.19;5065939;28;20036;-49
2022/12/16 03:07:36;;;;;;;47.63;32.47;;;;;;;-2.44;96.25;101049.19;5047638;28;20033;-50
2022/12/16 03:10:07;;;;;;;49.20;33.90;;;;;;;-2.42;96.37;101054.38;5053158;28;20025;-49
2022/12/16 03:12:32;;;;;;;47.20;33.33;;;;;;;-2.42;96.47;101052.59;5054311;28;20025;-50
2022/12/16 03:14:58;;;;;;;49.55;33.92;;;;;;;-2.42;96.76;101054.38;5054093;28;20049;-49
2022/12/16 03:17:26;;;;;;;49.40;34.28;;;;;;;-2.42;96.75;101059.56;5046311;28;20380;-52
2022/12/16 03:20:14;;;;;;;49.70;33.92;;;;;;;-2.38;97.15;101065.56;5046962;28;20028;-52
2022/12/16 03:22:43;;;;;;;46.20;32.42;;;;;;;-2.39;97.05;101063.88;5050662;28;20032;-50
2022/12/16 03:25:09;;;;;;;48.40;33.60;;;;;;;-2.37;97.23;101065.53;5053957;28;20040;-52
2022/12/16 03:27:45;;;;;;;49.20;34.63;;;;;;;-2.37;97.48;101067.28;5053768;28;20083;-51
2022/12/16 03:30:18;;;;;;;49.08;34.05;;;;;;;-2.36;97.74;101069.84;5053538;28;20025;-50
2022/12/16 03:32:57;;;;;;;50.70;35.35;;;;;;;-2.34;98.13;101067.22;5045744;28;20021;-51
2022/12/16 03:35:39;;;;;;;50.05;34.38;;;;;;;-2.33;98.04;101071.53;5053025;28;20119;-51
2022/12/16 03:38:08;;;;;;;48.58;35.47;;;;;;;-2.34;97.77;101069.84;5053759;28;20102;-50
2022/12/16 03:40:35;;;;;;;51.17;34.65;;;;;;;-2.34;97.64;101069.84;5053517;28;20386;-50
2022/12/16 03:43:02;;;;;;;51.17;35.40;;;;;;;-2.33;98.05;101066.31;5052508;28;20029;-50
2022/12/16 03:45:35;;;;;;;52.47;35.83;;;;;;;-2.32;98.36;101076.69;5053379;28;20036;-51
2022/12/16 03:48:00;;;;;;;53.42;35.47;;;;;;;-2.30;98.58;101076.69;5052781;28;20033;-50
2022/12/16 03:50:30;;;;;;;53.08;35.85;;;;;;;-2.28;98.65;101085.31;5053794;28;20029;-52
2022/12/16 03:52:56;;;;;;;51.03;36.17;;;;;;;-2.27;98.68;101089.63;5051862;28;20100;-49
2022/12/16 03:55:21;;;;;;;50.92;36.10;;;;;;;-2.26;98.67;101087.00;5052817;28;20032;-50
2022/12/16 03:57:46;;;;;;;53.55;35.25;;;;;;;-2.24;98.77;101081.78;5053254;28;20021;-53
2022/12/16 04:00:12;;;;;;;51.17;35.20;;;;;;;-2.22;99.26;101079.13;5052389;28;20028;-49
2022/12/16 04:02:37;;;;;;;52.53;36.17;;;;;;;-2.21;99.26;101086.91;5053288;28;20467;-50
2022/12/16 04:05:03;;;;;;;57.25;36.65;;;;;;;-2.19;99.41;101094.69;5053641;28;20020;-53
2022/12/16 04:07:28;;;;;;;59.20;36.35;;;;;;;-2.19;99.48;101095.53;5052873;28;20028;-51
2022/12/16 04:09:53;;;;;;;56.80;36.33;;;;;;;-2.17;99.72;101098.97;5052621;28;20021;-50
2022/12/16 04:26:07;;;;;;;56.20;36.20;;;;;;;-2.10;100.00;101112.72;5046847;28;20559;-52
2022/12/16 04:28:33;;;;;;;64.32;38.75;;;;;;;-2.08;100.00;101118.75;5052825;28;20112;-49
2022/12/16 04:30:58;;;;;;;52.38;35.55;;;;;;;-2.06;100.00;101119.59;5053163;28;20438;-50
